sensor_id;sensor_type;location;lat;lon;timestamp;pressure;altitude;pressure_sealevel;temperature;humidity
79544;BME280;68994;47.176;7.534;2023-05-01T00:01:18;95934.41;;;11.77;81.05
79544;BME280;68994;47.176;7.534;2023-05-01T00:03:45;95937.59;;;11.74;81.16
79544;BME280;68994;47.176;7.534;2023-05-01T00:06:12;95933.06;;;11.74;81.78
79544;BME280;68994;47.176;7.534;2023-05-01T00:08:38;95930.13;;;11.70;81.78
79544;BME280;68994;47.176;7.534;2023-05-01T00:11:05;95928.50;;;11.69;82.01
79544;BME280;68994;47.176;7.534;2023-05-01T00:13:34;95932.00;;;11.70;82.04
79544;BME280;68994;47.176;7.534;2023-05-01T00:16:06;95932.25;;;11.68;81.96
79544;BME280;68994;47.176;7.534;2023-05-01T00:18:33;95928.22;;;11.66;81.82
79544;BME280;68994;47.176;7.534;2023-05-01T00:21:00;95928.22;;;11.61;81.81
79544;BME280;68994;47.176;7.534;2023-05-01T00:23:27;95928.50;;;11.59;82.29
79544;BME280;68994;47.176;7.534;2023-05-01T00:25:53;95921.28;;;11.55;82.90
79544;BME280;68994;47.176;7.534;2023-05-01T00:28:20;95929.84;;;11.51;82.88
79544;BME280;68994;47.176;7.534;2023-05-01T00:30:47;95923.13;;;11.49;82.84
79544;BME280;68994;47.176;7.534;2023-05-01T00:33:15;95922.06;;;11.45;82.52
79544;BME280;68994;47.176;7.534;2023-05-01T00:35:43;95919.41;;;11.40;83.88
79544;BME280;68994;47.176;7.534;2023-05-01T00:38:09;95924.16;;;11.32;83.13
79544;BME280;68994;47.176;7.534;2023-05-01T00:40:40;95918.81;;;11.32;83.55
79544;BME280;68994;47.176;7.534;2023-05-01T00:43:08;95918.56;;;11.29;82.31
79544;BME280;68994;47.176;7.534;2023-05-01T00:45:35;95912.94;;;11.30;84.30
79544;BME280;68994;47.176;7.534;2023-05-01T00:48:02;95915.38;;;11.32;85.53
79544;BME280;68994;47.176;7.534;2023-05-01T00:50:31;95912.69;;;11.32;84.70
79544;BME280;68994;47.176;7.534;2023-05-01T00:52:57;95907.34;;;11.27;83.68
79544;BME280;68994;47.176;7.534;2023-05-01T00:55:25;95907.59;;;11.25;83.81
79544;BME280;68994;47.176;7.534;2023-05-01T00:57:52;95914.56;;;11.26;84.01
79544;BME280;68994;47.176;7.534;2023-05-01T01:00:20;95911.63;;;11.28;84.76
79544;BME280;68994;47.176;7.534;2023-05-01T01:02:49;95904.94;;;11.25;84.98
79544;BME280;68994;47.176;7.534;2023-05-01T01:05:16;95897.97;;;11.19;84.70
79544;BME280;68994;47.176;7.534;2023-05-01T01:07:50;95899.03;;;11.18;84.33
79544;BME280;68994;47.176;7.534;2023-05-01T01:10:26;95898.50;;;11.16;84.88
79544;BME280;68994;47.176;7.534;2023-05-01T01:13:03;95895.00;;;11.16;85.39
79544;BME280;68994;47.176;7.534;2023-05-01T01:15:39;95890.75;;;11.14;84.92
79544;BME280;68994;47.176;7.534;2023-05-01T01:18:12;95898.50;;;11.16;85.42
79544;BME280;68994;47.176;7.534;2023-05-01T01:20:44;95892.09;;;11.17;84.91
79544;BME280;68994;47.176;7.534;2023-05-01T01:23:45;95889.94;;;11.19;84.76
79544;BME280;68994;47.176;7.534;2023-05-01T01:26:23;95890.50;;;11.16;85.01
79544;BME280;68994;47.176;7.534;2023-05-01T01:32:04;95886.72;;;11.12;85.22
79544;BME280;68994;47.176;7.534;2023-05-01T01:34:39;95884.06;;;11.12;85.56
79544;BME280;68994;47.176;7.534;2023-05-01T01:37:11;95875.78;;;11.08;85.48
79544;BME280;68994;47.176;7.534;2023-05-01T01:39:45;95876.81;;;11.02;85.20
79544;BME280;68994;47.176;7.534;2023-05-01T01:42:18;95881.09;;;10.98;85.76
79544;BME280;68994;47.176;7.534;2023-05-01T01:44:48;95881.88;;;10.99;85.54
79544;BME280;68994;47.176;7.534;2023-05-01T01:47:17;95877.91;;;10.96;85.48
79544;BME280;68994;47.176;7.534;2023-05-01T01:49:48;95888.28;;;10.92;85.76
79544;BME280;68994;47.176;7.534;2023-05-01T01:52:17;95885.34;;;10.94;85.89
79544;BME280;68994;47.176;7.534;2023-05-01T01:54:49;95886.69;;;10.91;85.25
79544;BME280;68994;47.176;7.534;2023-05-01T01:57:18;95886.41;;;10.88;85.86
79544;BME280;68994;47.176;7.534;2023-05-01T01:59:47;95886.94;;;10.85;85.74
79544;BME280;68994;47.176;7.534;2023-05-01T02:02:18;95885.31;;;10.84;85.70
79544;BME280;68994;47.176;7.534;2023-05-01T02:04:47;95880.50;;;10.86;86.22
79544;BME280;68994;47.176;7.534;2023-05-01T02:07:16;95878.66;;;10.86;86.02
79544;BME280;68994;47.176;7.534;2023-05-01T02:09:43;95876.75;;;10.82;85.81
79544;BME280;68994;47.176;7.534;2023-05-01T02:12:11;95885.56;;;10.77;85.64
79544;BME280;68994;47.176;7.534;2023-05-01T02:14:40;95881.81;;;10.78;85.29
79544;BME280;68994;47.176;7.534;2023-05-01T02:17:07;95886.66;;;10.81;85.70
79544;BME280;68994;47.176;7.534;2023-05-01T02:19:37;95888.22;;;10.82;85.08
79544;BME280;68994;47.176;7.534;2023-05-01T02:22:06;95882.91;;;10.82;85.91
79544;BME280;68994;47.176;7.534;2023-05-01T02:24:34;95887.19;;;10.83;85.31
79544;BME280;68994;47.176;7.534;2023-05-01T02:27:06;95888.50;;;10.81;86.03
79544;BME280;68994;47.176;7.534;2023-05-01T02:29:33;95892.47;;;10.73;86.20
79544;BME280;68994;47.176;7.534;2023-05-01T02:32:00;95882.88;;;10.77;85.64
79544;BME280;68994;47.176;7.534;2023-05-01T02:34:27;95886.66;;;10.81;84.72
79544;BME280;68994;47.176;7.534;2023-05-01T02:36:53;95883.13;;;10.75;86.25
79544;BME280;68994;47.176;7.534;2023-05-01T02:39:21;95887.16;;;10.78;86.62
79544;BME280;68994;47.176;7.534;2023-05-01T02:41:48;95886.38;;;10.77;87.22
79544;BME280;68994;47.176;7.534;2023-05-01T02:44:16;95880.50;;;10.81;86.23
79544;BME280;68994;47.176;7.534;2023-05-01T02:46:44;95883.16;;;10.81;87.16
79544;BME280;68994;47.176;7.534;2023-05-01T02:49:12;95877.28;;;10.79;85.71
79544;BME280;68994;47.176;7.534;2023-05-01T02:51:40;95884.75;;;10.76;86.16
79544;BME280;68994;47.176;7.534;2023-05-01T02:54:08;95874.88;;;10.77;86.19
79544;BME280;68994;47.176;7.534;2023-05-01T02:56:36;95875.41;;;10.79;86.34
79544;BME280;68994;47.176;7.534;2023-05-01T02:59:03;95873.56;;;10.80;86.36
79544;BME280;68994;47.176;7.534;2023-05-01T03:01:30;95871.69;;;10.85;86.38
79544;BME280;68994;47.176;7.534;2023-05-01T03:03:56;95872.81;;;10.89;85.81
79544;BME280;68994;47.176;7.534;2023-05-01T03:06:23;95869.03;;;10.90;86.24
79544;BME280;68994;47.176;7.534;2023-05-01T03:08:53;95866.38;;;10.90;86.08
79544;BME280;68994;47.176;7.534;2023-05-01T03:11:19;95870.13;;;10.84;86.10
79544;BME280;68994;47.176;7.534;2023-05-01T03:13:47;95871.19;;;10.88;85.69
79544;BME280;68994;47.176;7.534;2023-05-01T03:16:14;95864.22;;;10.87;85.80
79544;BME280;68994;47.176;7.534;2023-05-01T03:18:41;95861.31;;;10.89;86.19
79544;BME280;68994;47.176;7.534;2023-05-01T03:21:07;95865.84;;;10.88;85.62
79544;BME280;68994;47.176;7.534;2023-05-01T03:23:34;95870.38;;;10.88;86.39
79544;BME280;68994;47.176;7.534;2023-05-01T03:26:02;95870.13;;;10.84;85.92
79544;BME280;68994;47.176;7.534;2023-05-01T03:28:29;95861.03;;;10.85;86.38
79544;BME280;68994;47.176;7.534;2023-05-01T03:30:57;95865.28;;;10.81;86.08
79544;BME280;68994;47.176;7.534;2023-05-01T03:33:23;95864.19;;;10.77;86.09
79544;BME280;68994;47.176;7.534;2023-05-01T03:35:58;95861.78;;;10.75;86.44
79544;BME280;68994;47.176;7.534;2023-05-01T03:38:25;95854.31;;;10.72;86.75
79544;BME280;68994;47.176;7.534;2023-05-01T03:40:52;95855.66;;;10.75;86.50
79544;BME280;68994;47.176;7.534;2023-05-01T03:43:19;95853.25;;;10.79;85.90
79544;BME280;68994;47.176;7.534;2023-05-01T03:45:45;95856.72;;;10.79;85.43
79544;BME280;68994;47.176;7.534;2023-05-01T03:48:13;95859.13;;;10.81;86.32
79544;BME280;68994;47.176;7.534;2023-05-01T03:50:40;95854.91;;;10.85;86.07
79544;BME280;68994;47.176;7.534;2023-05-01T03:53:06;95851.94;;;10.81;85.39
79544;BME280;68994;47.176;7.534;2023-05-01T03:55:33;95849.25;;;10.71;86.04
79544;BME280;68994;47.176;7.534;2023-05-01T03:57:59;95854.03;;;10.74;85.90
79544;BME280;68994;47.176;7.534;2023-05-01T04:00:26;95848.72;;;10.79;87.08
79544;BME280;68994;47.176;7.534;2023-05-01T04:02:53;95864.22;;;10.82;86.49
79544;BME280;68994;47.176;7.534;2023-05-01T04:05:22;95852.47;;;10.78;86.48
79544;BME280;68994;47.176;7.534;2023-05-01T04:07:48;95864.19;;;10.77;85.84
79544;BME280;68994;47.176;7.534;2023-05-01T04:10:15;95854.34;;;10.77;86.55
79544;BME280;68994;47.176;7.534;2023-05-01T04:12:42;95864.72;;;10.79;86.23
79544;BME280;68994;47.176;7.534;2023-05-01T04:15:09;95857.28;;;10.76;86.55
79544;BME280;68994;47.176;7.534;2023-05-01T04:17:36;95860.47;;;10.73;86.34
79544;BME280;68994;47.176;7.534;2023-05-01T04:20:03;95856.19;;;10.72;86.61
79544;BME280;68994;47.176;7.534;2023-05-01T04:22:32;95859.38;;;10.74;86.90
79544;BME280;68994;47.176;7.534;2023-05-01T04:24:58;95865.53;;;10.74;85.74
79544;BME280;68994;47.176;7.534;2023-05-01T04:27:28;95861.47;;;10.62;86.07
79544;BME280;68994;47.176;7.534;2023-05-01T04:29:54;95866.03;;;10.66;86.88
79544;BME280;68994;47.176;7.534;2023-05-01T04:32:21;95868.19;;;10.64;87.13
79544;BME280;68994;47.176;7.534;2023-05-01T04:34:48;95869.47;;;10.56;87.02
79544;BME280;68994;47.176;7.534;2023-05-01T04:37:14;95875.59;;;10.57;86.51
79544;BME280;68994;47.176;7.534;2023-05-01T04:39:43;95876.41;;;10.57;86.63
79544;BME280;68994;47.176;7.534;2023-05-01T04:42:10;95878.53;;;10.55;87.25
79544;BME280;68994;47.176;7.534;2023-05-01T04:44:36;95879.88;;;10.58;87.13
79544;BME280;68994;47.176;7.534;2023-05-01T04:47:03;95878.78;;;10.59;86.75
79544;BME280;68994;47.176;7.534;2023-05-01T04:49:30;95884.97;;;10.60;86.51
79544;BME280;68994;47.176;7.534;2023-05-01T04:51:57;95886.25;;;10.57;86.93
79544;BME280;68994;47.176;7.534;2023-05-01T04:54:23;95876.41;;;10.57;88.06
79544;BME280;68994;47.176;7.534;2023-05-01T04:56:51;95885.22;;;10.58;86.58
79544;BME280;68994;47.176;7.534;2023-05-01T04:59:18;95884.72;;;10.66;86.49
79544;BME280;68994;47.176;7.534;2023-05-01T05:01:44;95885.78;;;10.70;86.56
79544;BME280;68994;47.176;7.534;2023-05-01T05:04:11;95883.66;;;10.72;85.86
79544;BME280;68994;47.176;7.534;2023-05-01T05:06:37;95885.28;;;10.73;85.71
79544;BME280;68994;47.176;7.534;2023-05-01T05:09:04;95885.28;;;10.73;85.48
79544;BME280;68994;47.176;7.534;2023-05-01T05:11:31;95887.94;;;10.68;86.29
79544;BME280;68994;47.176;7.534;2023-05-01T05:13:59;95895.66;;;10.70;86.64
79544;BME280;68994;47.176;7.534;2023-05-01T05:16:28;95895.41;;;10.71;85.83
79544;BME280;68994;47.176;7.534;2023-05-01T05:18:55;95899.41;;;10.74;86.94
79544;BME280;68994;47.176;7.534;2023-05-01T05:21:22;95891.72;;;10.77;86.73
79544;BME280;68994;47.176;7.534;2023-05-01T05:23:48;95888.50;;;10.86;86.48
79544;BME280;68994;47.176;7.534;2023-05-01T05:26:15;95895.47;;;10.87;86.32
79544;BME280;68994;47.176;7.534;2023-05-01T05:28:42;95896.53;;;10.91;87.20
79544;BME280;68994;47.176;7.534;2023-05-01T05:31:10;95889.88;;;10.93;86.85
79544;BME280;68994;47.176;7.534;2023-05-01T05:33:37;95901.91;;;10.96;85.96
79544;BME280;68994;47.176;7.534;2023-05-01T05:36:04;95894.72;;;10.97;86.92
79544;BME280;68994;47.176;7.534;2023-05-01T05:38:30;95885.63;;;10.98;85.85
79544;BME280;68994;47.176;7.534;2023-05-01T05:40:57;95893.13;;;11.06;86.44
79544;BME280;68994;47.176;7.534;2023-05-01T05:43:27;95898.47;;;11.06;86.57
79544;BME280;68994;47.176;7.534;2023-05-01T05:45:55;95901.97;;;11.11;86.47
79544;BME280;68994;47.176;7.534;2023-05-01T05:48:23;95899.03;;;11.13;86.44
79544;BME280;68994;47.176;7.534;2023-05-01T05:50:50;95893.94;;;11.11;85.82
79544;BME280;68994;47.176;7.534;2023-05-01T05:53:17;95895.81;;;11.11;86.13
79544;BME280;68994;47.176;7.534;2023-05-01T05:55:49;95884.31;;;11.05;86.58
79544;BME280;68994;47.176;7.534;2023-05-01T05:58:16;95890.16;;;11.02;86.34
79544;BME280;68994;47.176;7.534;2023-05-01T06:00:46;95892.31;;;11.05;86.51
79544;BME280;68994;47.176;7.534;2023-05-01T06:03:13;95898.47;;;11.06;85.52
79544;BME280;68994;47.176;7.534;2023-05-01T06:05:41;95884.31;;;11.00;86.53
79544;BME280;68994;47.176;7.534;2023-05-01T06:08:08;95896.59;;;11.01;87.08
79544;BME280;68994;47.176;7.534;2023-05-01T06:10:36;95896.03;;;11.04;87.41
79544;BME280;68994;47.176;7.534;2023-05-01T06:13:04;95891.53;;;11.05;87.56
79544;BME280;68994;47.176;7.534;2023-05-01T06:15:30;95907.03;;;11.13;86.59
79544;BME280;68994;47.176;7.534;2023-05-01T06:17:57;95903.28;;;11.14;86.21
79544;BME280;68994;47.176;7.534;2023-05-01T06:20:24;95900.88;;;11.18;86.04
79544;BME280;68994;47.176;7.534;2023-05-01T06:22:52;95900.63;;;11.19;86.20
79544;BME280;68994;47.176;7.534;2023-05-01T06:25:19;95898.78;;;11.20;85.76
79544;BME280;68994;47.176;7.534;2023-05-01T06:27:45;95898.78;;;11.20;85.89
79544;BME280;68994;47.176;7.534;2023-05-01T06:30:12;95888.38;;;11.23;85.63
79544;BME280;68994;47.176;7.534;2023-05-01T06:32:39;95891.31;;;11.22;85.49
79544;BME280;68994;47.176;7.534;2023-05-01T06:35:07;95889.16;;;11.24;86.30
79544;BME280;68994;47.176;7.534;2023-05-01T06:37:33;95885.19;;;11.26;86.62
79544;BME280;68994;47.176;7.534;2023-05-01T06:40:01;95886.75;;;11.27;86.38
79544;BME280;68994;47.176;7.534;2023-05-01T06:42:29;95895.59;;;11.28;85.94
79544;BME280;68994;47.176;7.534;2023-05-01T06:44:55;95899.59;;;11.30;85.80
79544;BME280;68994;47.176;7.534;2023-05-01T06:47:22;95911.06;;;11.31;84.89
79544;BME280;68994;47.176;7.534;2023-05-01T06:49:48;95906.56;;;11.37;84.61
79544;BME280;68994;47.176;7.534;2023-05-01T06:52:15;95920.19;;;11.35;84.12
79544;BME280;68994;47.176;7.534;2023-05-01T06:54:42;95913.47;;;11.32;84.83
79544;BME280;68994;47.176;7.534;2023-05-01T06:57:10;95922.59;;;11.31;85.07
79544;BME280;68994;47.176;7.534;2023-05-01T06:59:36;95920.16;;;11.30;85.31
79544;BME280;68994;47.176;7.534;2023-05-01T07:02:03;95922.56;;;11.26;84.80
79544;BME280;68994;47.176;7.534;2023-05-01T07:04:30;95920.16;;;11.25;85.81
79544;BME280;68994;47.176;7.534;2023-05-01T07:06:57;95922.56;;;11.26;84.84
79544;BME280;68994;47.176;7.534;2023-05-01T07:09:23;95918.53;;;11.24;84.11
79544;BME280;68994;47.176;7.534;2023-05-01T07:11:50;95919.06;;;11.21;85.20
79544;BME280;68994;47.176;7.534;2023-05-01T07:14:18;95910.25;;;11.15;86.16
79544;BME280;68994;47.176;7.534;2023-05-01T07:16:45;95917.75;;;11.23;85.89
79544;BME280;68994;47.176;7.534;2023-05-01T07:19:11;95924.69;;;11.29;85.98
79544;BME280;68994;47.176;7.534;2023-05-01T07:21:40;95926.84;;;11.32;85.59
79544;BME280;68994;47.176;7.534;2023-05-01T07:24:06;95930.88;;;11.35;85.23
79544;BME280;68994;47.176;7.534;2023-05-01T07:26:34;95935.13;;;11.36;85.26
79544;BME280;68994;47.176;7.534;2023-05-01T07:29:00;95925.53;;;11.35;85.38
79544;BME280;68994;47.176;7.534;2023-05-01T07:31:28;95933.28;;;11.37;84.15
79544;BME280;68994;47.176;7.534;2023-05-01T07:33:55;95928.72;;;11.37;84.59
79544;BME280;68994;47.176;7.534;2023-05-01T07:36:22;95934.06;;;11.37;85.06
79544;BME280;68994;47.176;7.534;2023-05-01T07:38:49;95931.41;;;11.42;84.57
79544;BME280;68994;47.176;7.534;2023-05-01T07:41:16;95934.63;;;11.49;85.25
79544;BME280;68994;47.176;7.534;2023-05-01T07:43:42;95923.94;;;11.49;84.75
79544;BME280;68994;47.176;7.534;2023-05-01T07:46:09;95934.38;;;11.56;85.30
79544;BME280;68994;47.176;7.534;2023-05-01T07:48:37;95927.44;;;11.60;85.03
79544;BME280;68994;47.176;7.534;2023-05-01T07:51:04;95929.59;;;11.63;84.32
79544;BME280;68994;47.176;7.534;2023-05-01T07:53:31;95924.75;;;11.65;84.13
79544;BME280;68994;47.176;7.534;2023-05-01T07:56:07;95920.47;;;11.69;84.53
79544;BME280;68994;47.176;7.534;2023-05-01T07:58:34;95921.03;;;11.72;84.68
79544;BME280;68994;47.176;7.534;2023-05-01T08:01:01;95923.72;;;11.77;84.38
79544;BME280;68994;47.176;7.534;2023-05-01T08:03:28;95932.00;;;11.80;84.34
79544;BME280;68994;47.176;7.534;2023-05-01T08:05:56;95938.16;;;11.91;83.25
79544;BME280;68994;47.176;7.534;2023-05-01T08:08:23;95935.50;;;11.91;83.05
79544;BME280;68994;47.176;7.534;2023-05-01T08:10:50;95937.13;;;11.92;83.97
79544;BME280;68994;47.176;7.534;2023-05-01T08:13:17;95936.00;;;11.88;83.46
79544;BME280;68994;47.176;7.534;2023-05-01T08:15:45;95936.56;;;11.85;83.19
79544;BME280;68994;47.176;7.534;2023-05-01T08:18:11;95931.47;;;11.83;83.89
79544;BME280;68994;47.176;7.534;2023-05-01T08:20:43;95934.16;;;11.83;84.20
79544;BME280;68994;47.176;7.534;2023-05-01T08:23:12;95940.56;;;11.87;84.14
79544;BME280;68994;47.176;7.534;2023-05-01T08:25:38;95935.50;;;11.91;83.44
79544;BME280;68994;47.176;7.534;2023-05-01T08:28:05;95935.50;;;11.91;83.68
79544;BME280;68994;47.176;7.534;2023-05-01T08:30:31;95942.97;;;11.84;83.39
79544;BME280;68994;47.176;7.534;2023-05-01T08:32:58;95949.38;;;11.83;82.63
79544;BME280;68994;47.176;7.534;2023-05-01T08:35:24;95950.44;;;11.77;83.63
79544;BME280;68994;47.176;7.534;2023-05-01T08:37:51;95952.56;;;11.75;83.13
79544;BME280;68994;47.176;7.534;2023-05-01T08:40:19;95956.31;;;11.74;82.68
79544;BME280;68994;47.176;7.534;2023-05-01T08:42:46;95957.13;;;11.74;82.84
79544;BME280;68994;47.176;7.534;2023-05-01T08:45:14;95965.66;;;11.71;81.88
79544;BME280;68994;47.176;7.534;2023-05-01T08:47:43;95959.50;;;11.65;80.27
79544;BME280;68994;47.176;7.534;2023-05-01T08:50:13;95967.81;;;11.69;81.30
79544;BME280;68994;47.176;7.534;2023-05-01T08:52:40;95958.13;;;11.47;81.40
79544;BME280;68994;47.176;7.534;2023-05-01T08:55:11;95962.13;;;11.40;80.63
79544;BME280;68994;47.176;7.534;2023-05-01T08:57:43;95958.66;;;11.39;79.11
79544;BME280;68994;47.176;7.534;2023-05-01T09:00:15;95959.97;;;11.31;79.79
79544;BME280;68994;47.176;7.534;2023-05-01T09:02:43;95956.19;;;11.22;80.23
79544;BME280;68994;47.176;7.534;2023-05-01T09:05:12;95957.28;;;11.21;80.08
79544;BME280;68994;47.176;7.534;2023-05-01T09:07:39;95941.78;;;11.18;83.88
79544;BME280;68994;47.176;7.534;2023-05-01T09:10:06;95947.16;;;11.28;86.13
79544;BME280;68994;47.176;7.534;2023-05-01T09:12:33;95938.09;;;11.40;84.70
79544;BME280;68994;47.176;7.534;2023-05-01T09:15:02;95940.25;;;11.53;84.07
79544;BME280;68994;47.176;7.534;2023-05-01T09:17:30;95954.44;;;11.64;81.63
79544;BME280;68994;47.176;7.534;2023-05-01T09:19:58;95959.00;;;11.84;82.55
79544;BME280;68994;47.176;7.534;2023-05-01T09:22:29;95967.06;;;11.94;81.42
79544;BME280;68994;47.176;7.534;2023-05-01T09:24:55;95965.47;;;12.03;81.46
79544;BME280;68994;47.176;7.534;2023-05-01T09:27:23;95970.81;;;12.14;80.77
79544;BME280;68994;47.176;7.534;2023-05-01T09:29:53;95970.81;;;12.24;80.96
79544;BME280;68994;47.176;7.534;2023-05-01T09:32:22;95971.31;;;12.31;82.20
79544;BME280;68994;47.176;7.534;2023-05-01T09:34:50;95964.91;;;12.37;80.06
79544;BME280;68994;47.176;7.534;2023-05-01T09:37:27;95969.19;;;12.38;79.86
79544;BME280;68994;47.176;7.534;2023-05-01T09:40:04;95979.34;;;12.36;78.87
79544;BME280;68994;47.176;7.534;2023-05-01T09:42:31;95989.28;;;12.25;78.50
79544;BME280;68994;47.176;7.534;2023-05-01T09:44:59;95983.09;;;12.15;79.43
79544;BME280;68994;47.176;7.534;2023-05-01T09:47:27;95982.56;;;12.02;79.45
79544;BME280;68994;47.176;7.534;2023-05-01T09:49:54;95981.25;;;12.00;79.77
79544;BME280;68994;47.176;7.534;2023-05-01T09:52:22;95983.09;;;11.94;79.38
79544;BME280;68994;47.176;7.534;2023-05-01T09:54:48;95963.59;;;12.04;81.18
79544;BME280;68994;47.176;7.534;2023-05-01T09:57:15;95959.03;;;12.10;80.91
79544;BME280;68994;47.176;7.534;2023-05-01T09:59:41;95963.84;;;12.23;80.21
79544;BME280;68994;47.176;7.534;2023-05-01T10:02:28;95961.44;;;12.32;77.81
79544;BME280;68994;47.176;7.534;2023-05-01T10:04:57;95964.91;;;12.32;74.34
79544;BME280;68994;47.176;7.534;2023-05-01T10:07:24;95960.63;;;12.36;77.65
79544;BME280;68994;47.176;7.534;2023-05-01T10:09:52;95962.25;;;12.27;75.73
79544;BME280;68994;47.176;7.534;2023-05-01T10:12:23;95964.13;;;12.32;78.40
79544;BME280;68994;47.176;7.534;2023-05-01T10:14:51;95966.50;;;12.33;78.48
79544;BME280;68994;47.176;7.534;2023-05-01T10:17:18;95973.75;;;12.22;76.66
79544;BME280;68994;47.176;7.534;2023-05-01T10:19:47;95978.28;;;12.32;75.40
79544;BME280;68994;47.176;7.534;2023-05-01T10:22:14;95979.38;;;12.26;76.58
79544;BME280;68994;47.176;7.534;2023-05-01T10:24:42;95979.38;;;12.21;76.17
79544;BME280;68994;47.176;7.534;2023-05-01T10:27:10;95971.88;;;12.23;76.48
79544;BME280;68994;47.176;7.534;2023-05-01T10:29:37;95977.22;;;12.33;77.83
79544;BME280;68994;47.176;7.534;2023-05-01T10:32:05;95984.16;;;12.44;78.34
79544;BME280;68994;47.176;7.534;2023-05-01T10:34:34;95988.97;;;12.48;76.16
79544;BME280;68994;47.176;7.534;2023-05-01T10:37:09;95983.59;;;12.58;78.27
79544;BME280;68994;47.176;7.534;2023-05-01T10:39:38;95984.69;;;12.47;77.06
79544;BME280;68994;47.176;7.534;2023-05-01T10:42:06;95980.44;;;12.46;78.99
79544;BME280;68994;47.176;7.534;2023-05-01T10:44:36;95994.34;;;12.37;78.21
79544;BME280;68994;47.176;7.534;2023-05-01T10:50:08;95999.69;;;12.32;78.96
79544;BME280;68994;47.176;7.534;2023-05-01T10:55:37;95986.06;;;12.34;77.58
79544;BME280;68994;47.176;7.534;2023-05-01T10:58:05;96000.22;;;12.29;77.29
79544;BME280;68994;47.176;7.534;2023-05-01T11:00:32;95995.41;;;12.26;78.58
79544;BME280;68994;47.176;7.534;2023-05-01T11:03:33;95993.28;;;12.23;77.36
79544;BME280;68994;47.176;7.534;2023-05-01T11:06:06;95987.38;;;12.31;79.50
79544;BME280;68994;47.176;7.534;2023-05-01T11:08:34;95993.00;;;12.24;80.08
79544;BME280;68994;47.176;7.534;2023-05-01T11:14:09;95970.28;;;12.32;82.40
79544;BME280;68994;47.176;7.534;2023-05-01T11:16:40;95978.03;;;12.39;83.46
79544;BME280;68994;47.176;7.534;2023-05-01T11:19:08;95980.44;;;12.40;82.52
79544;BME280;68994;47.176;7.534;2023-05-01T11:21:35;95982.84;;;12.37;78.61
79544;BME280;68994;47.176;7.534;2023-05-01T11:24:03;95977.22;;;12.33;78.28
79544;BME280;68994;47.176;7.534;2023-05-01T11:26:30;95982.03;;;12.31;76.54
79544;BME280;68994;47.176;7.534;2023-05-01T11:28:59;95985.81;;;12.30;78.26
79544;BME280;68994;47.176;7.534;2023-05-01T11:31:28;95980.97;;;12.27;77.76
79544;BME280;68994;47.176;7.534;2023-05-01T11:33:55;95986.34;;;12.27;78.08
79544;BME280;68994;47.176;7.534;2023-05-01T11:36:22;95987.66;;;12.35;78.37
79544;BME280;68994;47.176;7.534;2023-05-01T11:38:49;95994.34;;;12.27;75.25
79544;BME280;68994;47.176;7.534;2023-05-01T11:41:19;95985.25;;;12.23;76.73
79544;BME280;68994;47.176;7.534;2023-05-01T11:43:49;95987.66;;;12.24;77.99
79544;BME280;68994;47.176;7.534;2023-05-01T11:46:22;95987.91;;;12.28;75.27
79544;BME280;68994;47.176;7.534;2023-05-01T11:48:50;95983.91;;;12.36;75.67
79544;BME280;68994;47.176;7.534;2023-05-01T11:51:17;95986.84;;;12.44;79.51
79544;BME280;68994;47.176;7.534;2023-05-01T11:53:57;95980.69;;;12.54;76.56
79544;BME280;68994;47.176;7.534;2023-05-01T11:56:23;95980.66;;;12.59;74.77
79544;BME280;68994;47.176;7.534;2023-05-01T11:58:50;95979.34;;;12.57;72.78
79544;BME280;68994;47.176;7.534;2023-05-01T12:01:18;95980.41;;;12.51;73.45
79544;BME280;68994;47.176;7.534;2023-05-01T12:03:44;95987.38;;;12.57;71.90
79544;BME280;68994;47.176;7.534;2023-05-01T12:06:12;95979.34;;;12.62;72.80
79544;BME280;68994;47.176;7.534;2023-05-01T12:08:42;95987.09;;;12.69;75.04
79544;BME280;68994;47.176;7.534;2023-05-01T12:11:10;95982.25;;;12.76;74.11
79544;BME280;68994;47.176;7.534;2023-05-01T12:13:38;95985.69;;;12.81;72.71
79544;BME280;68994;47.176;7.534;2023-05-01T12:16:06;95995.06;;;12.89;75.45
79544;BME280;68994;47.176;7.534;2023-05-01T12:18:33;95996.38;;;12.92;75.36
79544;BME280;68994;47.176;7.534;2023-05-01T12:21:01;95994.78;;;12.96;75.95
79544;BME280;68994;47.176;7.534;2023-05-01T12:23:34;95994.25;;;12.94;74.37
79544;BME280;68994;47.176;7.534;2023-05-01T12:26:01;96002.28;;;12.84;75.51
79544;BME280;68994;47.176;7.534;2023-05-01T12:28:29;95994.03;;;12.70;75.90
79544;BME280;68994;47.176;7.534;2023-05-01T12:31:00;96000.47;;;12.58;75.90
79544;BME280;68994;47.176;7.534;2023-05-01T12:33:27;95993.81;;;12.46;75.27
79544;BME280;68994;47.176;7.534;2023-05-01T12:35:54;96001.56;;;12.42;75.75
79544;BME280;68994;47.176;7.534;2023-05-01T12:38:22;96003.97;;;12.33;76.59
79544;BME280;68994;47.176;7.534;2023-05-01T12:40:52;96010.94;;;12.19;74.93
79544;BME280;68994;47.176;7.534;2023-05-01T12:43:20;96000.78;;;12.11;76.40
79544;BME280;68994;47.176;7.534;2023-05-01T12:45:50;96005.59;;;12.09;79.82
79544;BME280;68994;47.176;7.534;2023-05-01T12:48:17;96003.97;;;12.13;78.28
79544;BME280;68994;47.176;7.534;2023-05-01T12:50:45;95998.09;;;12.11;80.32
79544;BME280;68994;47.176;7.534;2023-05-01T12:53:18;96005.31;;;12.15;76.77
79544;BME280;68994;47.176;7.534;2023-05-01T12:55:47;96007.72;;;12.17;78.31
79544;BME280;68994;47.176;7.534;2023-05-01T12:58:16;96001.56;;;12.16;77.38
79544;BME280;68994;47.176;7.534;2023-05-01T13:00:44;96010.69;;;12.20;77.91
79544;BME280;68994;47.176;7.534;2023-05-01T13:03:11;95999.44;;;12.23;77.68
79544;BME280;68994;47.176;7.534;2023-05-01T13:05:49;96004.25;;;12.32;78.14
79544;BME280;68994;47.176;7.534;2023-05-01T13:08:23;96001.31;;;12.38;78.26
79544;BME280;68994;47.176;7.534;2023-05-01T13:10:50;95996.50;;;12.35;77.21
79544;BME280;68994;47.176;7.534;2023-05-01T13:13:23;95997.28;;;12.51;79.40
79544;BME280;68994;47.176;7.534;2023-05-01T13:15:50;95990.84;;;12.57;77.39
79544;BME280;68994;47.176;7.534;2023-05-01T13:18:17;95984.44;;;12.64;76.59